createdAt,value
2022-12-03T00:00:44.753Z,0.69
2022-12-03T00:02:45.990Z,0.72
2022-12-03T00:04:47.531Z,0.69
2022-12-03T00:06:49.441Z,0.67
2022-12-03T00:08:51.350Z,0.69
2022-12-03T00:10:53.025Z,0.72
2022-12-03T00:12:54.484Z,0.69
2022-12-03T00:14:56.027Z,0.69
2022-12-03T00:16:57.531Z,0.69
2022-12-03T00:18:58.548Z,0.7
2022-12-03T00:20:59.719Z,0.72
2022-12-03T00:23:01.184Z,0.76
2022-12-03T00:25:02.800Z,0.75
2022-12-03T00:27:04.477Z,0.76
2022-12-03T00:29:06.455Z,0.78
2022-12-03T00:31:07.618Z,0.8
2022-12-03T00:33:08.877Z,0.79
2022-12-03T00:35:10.588Z,0.81
2022-12-03T00:37:11.807Z,0.82
2022-12-03T00:39:12.927Z,0.82
2022-12-03T00:41:14.913Z,0.82
2022-12-03T00:43:16.872Z,0.83
2022-12-03T00:47:19.902Z,0.84
2022-12-03T00:49:21.273Z,0.84
2022-12-03T00:51:22.784Z,0.83
2022-12-03T00:53:24.176Z,0.87
2022-12-03T00:55:26.131Z,0.87
2022-12-03T00:57:27.934Z,0.9
2022-12-03T00:59:29.089Z,0.88
2022-12-03T01:01:30.818Z,0.87
2022-12-03T01:03:32.046Z,0.85
2022-12-03T01:05:33.197Z,0.87
2022-12-03T01:07:34.968Z,0.85
2022-12-03T01:09:36.351Z,0.87
2022-12-03T01:11:38.273Z,0.86
2022-12-03T01:13:40.201Z,0.86
2022-12-03T01:15:41.596Z,0.87
2022-12-03T01:17:43.060Z,0.86
2022-12-03T01:19:48.162Z,0.85
2022-12-03T01:21:46.210Z,0.89
2022-12-03T01:23:48.202Z,0.88
2022-12-03T01:25:49.682Z,0.92
2022-12-03T01:26:33.595Z,0.87
2022-12-03T01:28:34.866Z,0.94
2022-12-03T01:30:36.733Z,0.93
2022-12-03T01:32:38.253Z,0.96
2022-12-03T01:34:39.323Z,0.94
2022-12-03T01:36:41.177Z,0.95
2022-12-03T01:38:42.640Z,0.93
2022-12-03T01:40:44.307Z,0.96
2022-12-03T01:42:46.129Z,0.92
2022-12-03T01:44:47.172Z,0.95
2022-12-03T01:46:48.685Z,0.9
2022-12-03T01:48:50.074Z,0.93
2022-12-03T01:50:51.514Z,0.94
2022-12-03T01:52:53.245Z,0.94
2022-12-03T01:54:55.222Z,0.91
2022-12-03T01:56:56.720Z,0.97
2022-12-03T01:58:58.211Z,0.94
2022-12-03T02:01:00.170Z,0.98
2022-12-03T02:03:01.314Z,0.92
2022-12-03T02:05:02.957Z,0.92
2022-12-03T02:07:04.927Z,0.93
2022-12-03T02:09:06.164Z,0.99
2022-12-03T02:11:07.344Z,0.9
2022-12-03T02:13:09.072Z,0.96
2022-12-03T02:15:10.079Z,0.93
2022-12-03T02:17:11.835Z,0.9
2022-12-03T02:19:13.457Z,0.92
2022-12-03T02:21:15.101Z,0.94
2022-12-03T02:23:16.910Z,0.91
2022-12-03T02:25:18.796Z,0.94
2022-12-03T02:27:19.991Z,0.92
2022-12-03T02:29:21.952Z,0.9
2022-12-03T02:31:23.765Z,0.91
2022-12-03T02:33:25.504Z,0.94
2022-12-03T02:35:26.667Z,0.95
2022-12-03T02:37:28.363Z,0.9
2022-12-03T02:39:30.388Z,0.93
2022-12-03T02:41:31.556Z,0.92
2022-12-03T02:43:32.659Z,0.93
2022-12-03T02:45:33.891Z,0.91
2022-12-03T02:47:35.320Z,0.94
2022-12-03T02:49:36.863Z,0.91
2022-12-03T02:51:38.076Z,0.92
2022-12-03T02:53:39.821Z,0.95
2022-12-03T02:55:41.605Z,0.94
2022-12-03T02:57:42.970Z,0.95
2022-12-03T02:59:44.369Z,0.92
2022-12-03T03:01:45.626Z,0.91
2022-12-03T03:03:47.071Z,0.94
2022-12-03T03:05:48.513Z,0.95
2022-12-03T03:07:49.842Z,0.97
2022-12-03T03:09:50.813Z,0.95
2022-12-03T03:11:52.587Z,1
2022-12-03T03:13:54.030Z,0.97
2022-12-03T03:15:55.852Z,1
2022-12-03T03:17:57.615Z,1.01
2022-12-03T03:19:59.521Z,1
2022-12-03T03:22:00.989Z,0.95
2022-12-03T03:24:02.643Z,0.99
2022-12-03T03:26:04.260Z,0.99
2022-12-03T03:28:06.177Z,0.98
2022-12-03T03:30:07.493Z,0.97
2022-12-03T03:32:08.861Z,1.01
2022-12-03T03:34:10.488Z,0.99
2022-12-03T03:36:12.142Z,0.99
2022-12-03T03:38:13.970Z,1.02
2022-12-03T03:40:15.880Z,1.01
2022-12-03T03:42:17.524Z,1.01
2022-12-03T03:44:18.888Z,1.02
2022-12-03T03:46:20.197Z,1.01
2022-12-03T03:48:21.915Z,1.04
2022-12-03T03:50:23.098Z,1.04
2022-12-03T03:52:24.604Z,1.05
2022-12-03T03:54:25.951Z,1.04
2022-12-03T03:56:27.960Z,1.04
2022-12-03T03:58:29.950Z,1.03
2022-12-03T04:00:31.536Z,1.03
2022-12-03T04:02:33.229Z,1.06
2022-12-03T04:04:34.918Z,1.04
2022-12-03T04:06:36.643Z,1.06
2022-12-03T04:08:38.469Z,1.04
2022-12-03T04:10:40.114Z,1.04
2022-12-03T04:12:42.122Z,1.04
2022-12-03T04:14:43.584Z,1.07
2022-12-03T04:16:44.643Z,1.05
2022-12-03T04:18:46.325Z,1.06
2022-12-03T04:20:47.977Z,1.07
2022-12-03T04:22:49.413Z,1.07
2022-12-03T04:24:51.262Z,1.1
2022-12-03T04:26:52.594Z,1.07
2022-12-03T04:28:53.913Z,1.09
2022-12-03T04:30:55.238Z,1.04
2022-12-03T04:32:56.761Z,1.1
2022-12-03T04:34:58.789Z,1.07
2022-12-03T04:37:00.582Z,1.06
2022-12-03T04:39:01.948Z,1.11
2022-12-03T04:41:03.775Z,1.07
2022-12-03T04:43:05.147Z,1.1
2022-12-03T04:45:07.109Z,1.09
2022-12-03T04:47:08.705Z,1.1
2022-12-03T04:49:10.656Z,1.07
2022-12-03T04:51:11.827Z,1.11
2022-12-03T04:53:13.756Z,1.1
2022-12-03T04:55:15.049Z,1.11
2022-12-03T04:57:16.077Z,1.13
2022-12-03T04:59:17.411Z,1.13
2022-12-03T05:01:19.377Z,1.15
2022-12-03T05:03:21.139Z,1.11
2022-12-03T05:05:22.694Z,1.11
2022-12-03T05:07:24.296Z,1.18
2022-12-03T05:09:26.048Z,1.17
2022-12-03T05:11:27.492Z,1.15
2022-12-03T05:13:28.873Z,1.16
2022-12-03T05:15:30.836Z,1.13
2022-12-03T05:17:31.886Z,1.14
2022-12-03T05:19:32.923Z,1.12
2022-12-03T05:21:34.272Z,1.15
2022-12-03T05:23:36.046Z,1.19
2022-12-03T05:25:37.384Z,1.18
2022-12-03T05:27:38.829Z,1.18
2022-12-03T05:29:40.803Z,1.23
2022-12-03T05:31:42.675Z,1.2
2022-12-03T05:33:44.612Z,1.25
2022-12-03T05:35:46.100Z,1.23
2022-12-03T05:37:47.211Z,1.21
2022-12-03T05:39:48.811Z,1.25
2022-12-03T05:41:50.760Z,1.26
2022-12-03T05:43:52.791Z,1.24
2022-12-03T05:45:54.814Z,1.24
2022-12-03T05:47:55.880Z,1.23
2022-12-03T05:49:56.966Z,1.25
2022-12-03T05:51:58.981Z,1.24
2022-12-03T05:54:00.011Z,1.27
2022-12-03T05:56:01.484Z,1.29
2022-12-03T05:58:03.076Z,1.27
2022-12-03T06:00:04.336Z,1.28
2022-12-03T06:02:05.731Z,1.27
2022-12-03T06:04:07.364Z,1.27
2022-12-03T06:06:09.032Z,1.28
2022-12-03T06:08:11.034Z,1.28
2022-12-03T06:10:12.816Z,1.29
2022-12-03T06:12:14.689Z,1.28
2022-12-03T06:14:15.803Z,1.28
2022-12-03T06:16:17.166Z,1.28
2022-12-03T06:18:18.667Z,1.31
2022-12-03T06:20:20.375Z,1.3
2022-12-03T06:22:22.212Z,1.31
2022-12-03T06:24:23.338Z,1.33
2022-12-03T06:26:25.287Z,1.3
2022-12-03T06:28:27.003Z,1.3
2022-12-03T06:30:28.035Z,1.3
2022-12-03T06:32:29.645Z,1.33
2022-12-03T06:34:31.524Z,1.31
2022-12-03T06:36:32.928Z,1.36
2022-12-03T06:38:34.873Z,1.34
2022-12-03T06:40:36.486Z,1.35
2022-12-03T06:42:38.562Z,1.35
2022-12-03T06:44:39.750Z,1.35
2022-12-03T06:46:40.809Z,1.36
2022-12-03T06:48:42.263Z,1.37
2022-12-03T06:50:43.887Z,1.38
2022-12-03T06:52:45.350Z,1.38
2022-12-03T06:54:46.950Z,1.37
2022-12-03T06:56:48.858Z,1.38
2022-12-03T06:58:49.935Z,1.39
2022-12-03T07:00:51.519Z,1.39
2022-12-03T07:02:53.324Z,1.35
2022-12-03T07:04:54.770Z,1.39
2022-12-03T07:06:55.810Z,1.4
2022-12-03T07:08:57.412Z,1.41
2022-12-03T07:10:58.722Z,1.41
2022-12-03T07:13:00.022Z,1.43
2022-12-03T07:15:01.062Z,1.42
2022-12-03T07:17:02.646Z,1.44
2022-12-03T07:21:05.156Z,1.42
2022-12-03T07:23:07.148Z,1.48
2022-12-03T07:25:08.426Z,1.46
2022-12-03T07:27:10.234Z,1.46
2022-12-03T07:29:11.314Z,1.48
2022-12-03T07:31:12.627Z,1.49
2022-12-03T07:33:13.593Z,1.46
2022-12-03T07:35:15.081Z,1.51
2022-12-03T07:37:21.529Z,1.5
2022-12-03T07:39:18.522Z,1.51
2022-12-03T07:41:20.445Z,1.49
2022-12-03T07:43:21.537Z,1.54
2022-12-03T07:45:23.002Z,1.51
2022-12-03T07:47:24.504Z,1.54
2022-12-03T07:49:26.180Z,1.55
2022-12-03T07:51:31.908Z,1.59
2022-12-03T07:53:28.959Z,1.56
2022-12-03T07:55:30.737Z,1.59
2022-12-03T07:57:31.891Z,1.57
2022-12-03T07:59:33.472Z,1.58
2022-12-03T08:01:35.128Z,1.59
2022-12-03T08:03:36.595Z,1.64
2022-12-03T08:05:38.491Z,1.63
2022-12-03T08:07:39.916Z,1.63
2022-12-03T08:09:41.276Z,1.65
2022-12-03T08:11:42.818Z,1.65
2022-12-03T08:14:28.438Z,1.68
2022-12-03T08:16:29.626Z,1.7
2022-12-03T08:18:31.476Z,1.68
2022-12-03T08:20:33.295Z,1.71
2022-12-03T08:22:34.582Z,1.68
2022-12-03T08:24:36.309Z,1.68
2022-12-03T08:26:38.124Z,1.73
2022-12-03T08:28:39.814Z,1.74
2022-12-03T08:30:41.326Z,1.7
2022-12-03T08:32:42.353Z,1.74
2022-12-03T08:34:44.241Z,1.75
2022-12-03T08:36:45.635Z,1.77
2022-12-03T08:38:47.576Z,1.75
2022-12-03T08:40:49.351Z,1.74
2022-12-03T08:42:51.115Z,1.77
2022-12-03T08:44:52.812Z,1.8
2022-12-03T08:46:53.967Z,1.8
2022-12-03T08:48:55.632Z,1.8
2022-12-03T08:50:56.737Z,1.78
2022-12-03T08:52:58.361Z,1.78
2022-12-03T08:55:00.248Z,1.78
2022-12-03T08:57:01.766Z,1.82
2022-12-03T08:59:03.428Z,1.83
2022-12-03T09:01:04.848Z,1.79
2022-12-03T09:03:06.718Z,1.86
2022-12-03T09:05:08.369Z,1.86
2022-12-03T09:07:09.991Z,1.83
2022-12-03T09:09:11.717Z,1.88
2022-12-03T09:11:12.806Z,1.93
2022-12-03T09:13:14.464Z,1.89
2022-12-03T09:15:15.828Z,1.89
2022-12-03T09:17:17.125Z,1.85
2022-12-03T09:19:18.807Z,1.92
2022-12-03T09:21:20.450Z,1.91
2022-12-03T09:23:21.908Z,1.94
2022-12-03T09:25:23.127Z,2.02
2022-12-03T09:27:24.698Z,1.92
2022-12-03T09:29:26.628Z,1.94
2022-12-03T09:31:28.313Z,2
2022-12-03T09:33:30.001Z,2
2022-12-03T09:35:31.551Z,2.02
2022-12-03T09:37:33.023Z,1.99
2022-12-03T09:39:34.193Z,2.01
2022-12-03T09:41:35.464Z,2.07
2022-12-03T09:44:03.088Z,2.07
2022-12-03T09:45:39.158Z,2.05
2022-12-03T09:47:40.308Z,2.01
2022-12-03T09:49:41.376Z,2.08
2022-12-03T09:51:42.949Z,2.21
2022-12-03T09:53:44.677Z,2.21
2022-12-03T09:55:46.612Z,2.16
2022-12-03T09:57:47.653Z,2.26
2022-12-03T09:59:49.648Z,2.27
2022-12-03T10:01:51.128Z,2.31
2022-12-03T10:03:52.440Z,2.29
2022-12-03T10:05:53.832Z,2.28
2022-12-03T10:07:55.142Z,2.29
2022-12-03T10:09:57.222Z,2.27
2022-12-03T10:11:58.532Z,2.31
2022-12-03T10:13:59.885Z,2.29
2022-12-03T10:16:01.444Z,2.36
2022-12-03T10:18:02.668Z,2.39
2022-12-03T10:22:05.533Z,2.4
2022-12-03T10:24:07.311Z,2.41
2022-12-03T10:26:08.647Z,2.42
2022-12-03T10:28:10.333Z,2.44
2022-12-03T10:30:11.683Z,2.5
2022-12-03T10:32:13.601Z,2.53
2022-12-03T10:34:15.019Z,2.51
2022-12-03T10:36:16.189Z,2.53
2022-12-03T10:38:17.371Z,2.6
2022-12-03T10:40:18.509Z,2.61
2022-12-03T10:42:20.034Z,2.62
2022-12-03T10:44:22.007Z,2.64
2022-12-03T10:46:23.948Z,2.66
2022-12-03T10:48:25.628Z,2.67
2022-12-03T10:50:26.634Z,2.74
2022-12-03T10:52:27.953Z,2.67
2022-12-03T10:54:29.180Z,2.69
2022-12-03T10:56:30.541Z,2.76
2022-12-03T10:58:32.095Z,2.75
2022-12-03T11:00:33.391Z,2.8
2022-12-03T11:02:35.189Z,2.84
2022-12-03T11:04:36.816Z,2.85
2022-12-03T11:06:38.015Z,2.89
2022-12-03T11:08:39.937Z,3.12
2022-12-03T11:10:40.966Z,2.95
2022-12-03T11:12:42.232Z,2.97
2022-12-03T11:14:43.214Z,3.13
2022-12-03T11:16:44.231Z,3.06
2022-12-03T11:18:46.082Z,3.13
2022-12-03T11:20:47.447Z,3.09
2022-12-03T11:22:48.612Z,3.02
2022-12-03T11:24:50.596Z,3.06
2022-12-03T11:26:51.680Z,2.98
2022-12-03T11:28:52.826Z,2.92
2022-12-03T11:30:54.584Z,2.96
2022-12-03T11:32:56.094Z,2.87
2022-12-03T11:34:57.407Z,2.9
2022-12-03T11:37:01.718Z,2.91
2022-12-03T11:39:00.475Z,2.85
2022-12-03T11:41:01.899Z,2.86
2022-12-03T11:43:03.412Z,2.84
2022-12-03T11:45:04.640Z,2.91
2022-12-03T11:47:06.085Z,2.92
2022-12-03T11:49:07.199Z,2.91
2022-12-03T11:51:08.639Z,2.92
2022-12-03T11:53:10.231Z,2.89
2022-12-03T11:55:11.316Z,2.95
2022-12-03T11:57:13.223Z,2.99
2022-12-03T11:59:14.953Z,2.98
2022-12-03T12:01:16.530Z,2.92
2022-12-03T12:03:17.608Z,2.95
2022-12-03T12:05:19.342Z,2.91
2022-12-03T12:07:21.051Z,2.79
2022-12-03T12:09:22.288Z,2.74
2022-12-03T12:11:23.965Z,2.77
2022-12-03T12:13:25.495Z,2.71
2022-12-03T12:15:26.648Z,2.67
2022-12-03T12:17:27.773Z,2.62
2022-12-03T12:19:29.197Z,2.61
2022-12-03T12:21:39.159Z,2.55
2022-12-03T12:23:32.502Z,2.53
2022-12-03T12:25:34.285Z,2.5
2022-12-03T12:27:35.867Z,2.47
2022-12-03T12:29:36.927Z,2.48
2022-12-03T12:31:38.377Z,2.47
2022-12-03T12:35:40.743Z,2.44
2022-12-03T12:37:46.375Z,2.39
2022-12-03T12:39:43.700Z,2.4
2022-12-03T12:41:45.602Z,2.37
2022-12-03T12:43:47.343Z,2.37
2022-12-03T12:45:49.250Z,2.34
2022-12-03T12:47:50.971Z,2.32
2022-12-03T12:49:52.144Z,2.34
2022-12-03T12:51:53.324Z,2.37
2022-12-03T12:53:54.846Z,2.31
2022-12-03T12:55:56.150Z,2.3
2022-12-03T12:57:57.866Z,2.29
2022-12-03T12:59:59.730Z,2.3
2022-12-03T13:02:07.163Z,2.26
2022-12-03T13:04:03.494Z,2.23
2022-12-03T13:06:04.925Z,2.26
2022-12-03T13:08:10.170Z,2.21
2022-12-03T13:10:07.449Z,2.22
2022-12-03T13:12:08.846Z,2.21
2022-12-03T13:14:10.228Z,2.2
2022-12-03T13:18:13.187Z,2.22
2022-12-03T13:20:14.958Z,2.23
2022-12-03T13:22:16.056Z,2.24
2022-12-03T13:24:17.944Z,2.22
2022-12-03T13:26:29.402Z,2.25
2022-12-03T13:28:21.381Z,2.27
2022-12-03T13:30:22.632Z,2.24
2022-12-03T13:32:24.121Z,2.28
2022-12-03T13:34:25.290Z,2.23
2022-12-03T13:36:26.590Z,2.23
2022-12-03T13:38:28.008Z,2.24
2022-12-03T13:40:29.624Z,2.17
2022-12-03T13:42:30.670Z,2.18
2022-12-03T13:44:31.795Z,2.18
2022-12-03T13:46:32.947Z,2.2
2022-12-03T13:48:34.733Z,2.18
2022-12-03T13:50:36.343Z,2.19
2022-12-03T13:52:37.551Z,2.19
2022-12-03T13:54:39.558Z,2.19
2022-12-03T13:56:41.099Z,2.2
2022-12-03T13:58:42.225Z,2.18
2022-12-03T14:00:43.331Z,2.19
2022-12-03T14:02:45.235Z,2.14
2022-12-03T14:04:46.935Z,2.16
2022-12-03T14:06:48.414Z,2.15
2022-12-03T14:08:50.375Z,2.14
2022-12-03T14:10:54.248Z,2.16
2022-12-03T14:12:53.510Z,2.14
2022-12-03T14:14:54.973Z,2.15
2022-12-03T14:16:59.801Z,2.09
2022-12-03T14:18:58.219Z,2.09
2022-12-03T14:21:00.204Z,2.13
2022-12-03T14:23:02.131Z,2.13
2022-12-03T14:25:04.003Z,2.1
2022-12-03T14:27:05.004Z,2.12
2022-12-03T14:29:08.850Z,2.1
2022-12-03T14:31:08.552Z,2.12
2022-12-03T14:33:09.783Z,2.09
2022-12-03T14:35:11.081Z,2.07
2022-12-03T14:37:12.138Z,2.06
2022-12-03T14:39:14.134Z,2.08
2022-12-03T14:41:15.344Z,2.05
2022-12-03T14:43:16.439Z,2.07
2022-12-03T14:45:17.809Z,2.04
2022-12-03T14:47:19.358Z,2.08
2022-12-03T14:49:21.180Z,2.04
2022-12-03T14:51:22.550Z,2.02
2022-12-03T14:53:27.159Z,2.04
2022-12-03T14:55:25.829Z,2.07
2022-12-03T14:57:26.775Z,2.04
2022-12-03T14:58:10.676Z,2.05
2022-12-03T15:00:12.711Z,2.04
2022-12-03T15:02:14.399Z,2.02
2022-12-03T15:04:15.676Z,2.02
2022-12-03T15:06:16.983Z,2.01
2022-12-03T15:08:18.887Z,2
2022-12-03T15:10:20.023Z,2.01
2022-12-03T15:12:21.061Z,2.02
2022-12-03T15:14:22.343Z,1.98
2022-12-03T15:16:24.053Z,1.98
2022-12-03T15:18:25.958Z,1.95
2022-12-03T15:20:27.127Z,1.93
2022-12-03T15:22:28.162Z,1.92
2022-12-03T15:24:29.662Z,1.95
2022-12-03T15:26:30.948Z,1.93
2022-12-03T15:28:32.479Z,1.92
2022-12-03T15:30:34.213Z,1.92
2022-12-03T15:32:36.059Z,1.92
2022-12-03T15:34:37.407Z,1.96
2022-12-03T15:36:38.852Z,1.92
2022-12-03T15:38:40.004Z,1.9
2022-12-03T15:40:41.203Z,1.91
2022-12-03T15:42:42.436Z,1.95
2022-12-03T15:44:44.270Z,1.93
2022-12-03T15:46:45.899Z,1.97
2022-12-03T15:48:47.474Z,1.9
2022-12-03T15:50:48.890Z,1.89
2022-12-03T15:52:50.672Z,1.88
2022-12-03T15:54:52.148Z,1.86
2022-12-03T15:56:57.170Z,1.86
2022-12-03T15:58:55.598Z,1.83
2022-12-03T16:00:57.554Z,1.83
2022-12-03T16:02:58.704Z,1.83
2022-12-03T16:05:00.187Z,1.85
2022-12-03T16:07:02.086Z,1.87
2022-12-03T16:09:03.467Z,1.82
2022-12-03T16:11:05.288Z,1.81
2022-12-03T16:13:06.260Z,1.83
2022-12-03T16:15:08.007Z,1.8
2022-12-03T16:19:10.661Z,1.81
2022-12-03T16:21:11.727Z,1.8
2022-12-03T16:23:13.431Z,1.77
2022-12-03T16:25:15.157Z,1.77
2022-12-03T16:27:16.560Z,1.76
2022-12-03T16:29:18.197Z,1.79
2022-12-03T16:31:20.021Z,1.8
2022-12-03T16:33:27.177Z,1.78
2022-12-03T16:35:22.735Z,1.8
2022-12-03T16:37:24.306Z,1.8
2022-12-03T16:39:26.171Z,1.8
2022-12-03T16:41:28.156Z,1.79
2022-12-03T16:43:29.754Z,1.81
2022-12-03T16:45:30.760Z,1.78
2022-12-03T16:47:34.266Z,1.77
2022-12-03T16:49:34.155Z,1.78
2022-12-03T16:51:35.926Z,1.8
2022-12-03T16:53:37.207Z,1.82
2022-12-03T16:55:38.433Z,1.78
2022-12-03T16:57:40.278Z,1.77
2022-12-03T17:01:43.030Z,1.78
2022-12-03T17:03:44.271Z,1.77
2022-12-03T17:05:45.423Z,1.77
2022-12-03T17:07:47.328Z,1.75
2022-12-03T17:09:48.485Z,1.77
2022-12-03T17:11:50.412Z,1.79
2022-12-03T17:13:52.010Z,1.76
2022-12-03T17:15:53.236Z,1.77
2022-12-03T17:17:54.488Z,1.77
2022-12-03T17:19:56.536Z,1.75
2022-12-03T17:21:58.298Z,1.78
2022-12-03T17:23:59.674Z,1.77
2022-12-03T17:26:01.734Z,1.77
2022-12-03T17:28:03.211Z,1.77
2022-12-03T17:30:04.979Z,1.77
2022-12-03T17:32:06.987Z,1.74
2022-12-03T17:34:08.260Z,1.73
2022-12-03T17:36:09.789Z,1.76
2022-12-03T17:38:11.613Z,1.73
2022-12-03T17:40:12.831Z,1.75
2022-12-03T17:42:14.640Z,1.73
2022-12-03T17:44:19.532Z,1.75
2022-12-03T17:46:18.015Z,1.72
2022-12-03T17:48:19.531Z,1.71
2022-12-03T17:50:20.622Z,1.7
2022-12-03T17:52:22.029Z,1.7
2022-12-03T17:54:23.918Z,1.7
2022-12-03T17:56:25.342Z,1.68
2022-12-03T17:58:27.218Z,1.68
2022-12-03T18:00:28.735Z,1.67
2022-12-03T18:02:30.191Z,1.65
2022-12-03T18:04:31.987Z,1.66
2022-12-03T18:06:33.279Z,1.62
2022-12-03T18:08:34.882Z,1.61
2022-12-03T18:10:36.379Z,1.59
2022-12-03T18:12:37.861Z,1.58
2022-12-03T18:14:39.163Z,1.59
2022-12-03T18:16:40.747Z,1.59
2022-12-03T18:18:42.092Z,1.59
2022-12-03T18:20:43.599Z,1.57
2022-12-03T18:22:45.137Z,1.54
2022-12-03T18:24:48.932Z,1.57
2022-12-03T18:26:48.164Z,1.54
2022-12-03T18:28:49.621Z,1.53
2022-12-03T18:30:52.625Z,1.52
2022-12-03T18:32:52.271Z,1.49
2022-12-03T18:34:53.491Z,1.49
2022-12-03T18:36:55.372Z,1.46
2022-12-03T18:38:56.605Z,1.47
2022-12-03T18:40:58.404Z,1.47
2022-12-03T18:42:59.885Z,1.46
2022-12-03T18:45:01.143Z,1.45
2022-12-03T18:47:02.806Z,1.47
2022-12-03T18:49:03.808Z,1.47
2022-12-03T18:51:05.529Z,1.46
2022-12-03T18:53:06.676Z,1.43
2022-12-03T18:57:10.370Z,1.4
2022-12-03T19:01:14.201Z,1.4
2022-12-03T19:03:15.590Z,1.37
2022-12-03T19:05:17.581Z,1.35
2022-12-03T19:07:18.881Z,1.33
2022-12-03T19:09:20.654Z,1.32
2022-12-03T19:11:22.384Z,1.31
2022-12-03T19:13:23.432Z,1.3
2022-12-03T19:15:25.126Z,1.31
2022-12-03T19:17:26.838Z,1.29
2022-12-03T19:19:27.924Z,1.29
2022-12-03T19:21:33.474Z,1.27
2022-12-03T19:23:31.179Z,1.25
2022-12-03T19:25:32.413Z,1.25
2022-12-03T19:27:33.901Z,1.23
2022-12-03T19:29:35.706Z,1.23
2022-12-03T19:31:37.643Z,1.23
2022-12-03T19:33:38.679Z,1.23
2022-12-03T19:35:40.284Z,1.25
2022-12-03T19:37:42.312Z,1.21
2022-12-03T19:39:44.261Z,1.17
2022-12-03T19:41:46.206Z,1.19
2022-12-03T19:43:47.678Z,1.17
2022-12-03T19:45:49.276Z,1.18
2022-12-03T19:47:50.851Z,1.15
2022-12-03T19:49:52.684Z,1.13
2022-12-03T19:51:54.244Z,1.15
2022-12-03T19:53:55.896Z,1.11
2022-12-03T19:55:57.903Z,1.09
2022-12-03T19:57:59.036Z,1.11
2022-12-03T20:00:00.992Z,1.07
2022-12-03T20:02:02.940Z,1.07
2022-12-03T20:04:04.734Z,1.07
2022-12-03T20:06:06.121Z,1.04
2022-12-03T20:08:08.194Z,1
2022-12-03T20:10:09.633Z,1.01
2022-12-03T20:12:11.058Z,1.01
2022-12-03T20:14:12.640Z,1
2022-12-03T20:16:14.104Z,1.02
2022-12-03T20:18:15.572Z,1
2022-12-03T20:20:16.840Z,0.99
2022-12-03T20:22:18.850Z,0.98
2022-12-03T20:24:20.768Z,1
2022-12-03T20:26:22.713Z,0.97
2022-12-03T20:28:24.332Z,0.97
2022-12-03T20:30:25.896Z,0.96
2022-12-03T20:32:27.085Z,0.95
2022-12-03T20:34:28.790Z,0.93
2022-12-03T20:36:30.313Z,0.95
2022-12-03T20:38:32.084Z,0.9
2022-12-03T20:40:33.488Z,0.94
2022-12-03T20:42:35.174Z,0.91
2022-12-03T20:44:36.521Z,0.96
2022-12-03T20:46:37.818Z,0.93
2022-12-03T20:48:39.431Z,0.94
2022-12-03T20:50:40.620Z,0.94
2022-12-03T20:52:52.842Z,0.89
2022-12-03T20:54:43.647Z,0.9
2022-12-03T20:56:45.202Z,0.92
2022-12-03T20:58:46.818Z,0.92
2022-12-03T21:00:48.754Z,0.94
2022-12-03T21:02:49.701Z,0.9
2022-12-03T21:04:51.368Z,0.91
2022-12-03T21:06:53.152Z,0.91
2022-12-03T21:08:54.852Z,0.94
2022-12-03T21:10:56.067Z,0.94
2022-12-03T21:12:58.024Z,0.92
2022-12-03T21:14:59.243Z,0.89
2022-12-03T21:17:09.496Z,0.92
2022-12-03T21:19:02.051Z,0.93
2022-12-03T21:21:04.081Z,0.91
2022-12-03T21:23:05.700Z,0.92
2022-12-03T21:25:06.874Z,0.92
2022-12-03T21:27:07.996Z,0.96
2022-12-03T21:29:09.537Z,0.91
2022-12-03T21:31:11.102Z,0.94
2022-12-03T21:33:12.806Z,0.96
2022-12-03T21:35:14.612Z,0.94
2022-12-03T21:37:15.860Z,0.93
2022-12-03T21:39:16.971Z,0.95
2022-12-03T21:41:18.201Z,0.92
2022-12-03T21:43:19.335Z,0.92
2022-12-03T21:44:03.297Z,0.95
2022-12-03T21:46:04.717Z,0.93
2022-12-03T21:48:05.850Z,0.96
2022-12-03T21:50:07.184Z,0.94
2022-12-03T21:52:08.487Z,0.98
2022-12-03T21:54:09.687Z,0.97
2022-12-03T21:56:11.580Z,0.96
2022-12-03T21:58:13.002Z,0.98
2022-12-03T22:00:14.754Z,0.97
2022-12-03T22:02:16.690Z,1
2022-12-03T22:04:17.887Z,0.99
2022-12-03T22:06:19.377Z,0.98
2022-12-03T22:10:21.962Z,1.01
2022-12-03T22:12:23.145Z,1
2022-12-03T22:14:24.724Z,0.98
2022-12-03T22:16:25.901Z,0.99
2022-12-03T22:18:27.793Z,0.99
2022-12-03T22:20:29.654Z,1.01
2022-12-03T22:22:31.068Z,1.02
2022-12-03T22:24:32.774Z,1.03
2022-12-03T22:26:35.244Z,1.03
2022-12-03T22:28:35.197Z,1.04
2022-12-03T22:30:36.699Z,1.04
2022-12-03T22:32:38.074Z,1.03
2022-12-03T22:34:39.945Z,1
2022-12-03T22:36:41.620Z,1.05
2022-12-03T22:38:42.656Z,1.06
2022-12-03T22:40:44.267Z,1.05
2022-12-03T22:42:50.724Z,1.03
2022-12-03T22:44:46.770Z,1.02
2022-12-03T22:46:48.112Z,1.04
2022-12-03T22:48:49.753Z,1.07
2022-12-03T22:50:51.076Z,1.07
2022-12-03T22:52:52.843Z,1.11
2022-12-03T22:54:54.490Z,1.09
2022-12-03T22:56:56.013Z,1.12
2022-12-03T22:58:57.901Z,1.12
2022-12-03T23:01:02.575Z,1.15
2022-12-03T23:03:00.869Z,1.12
2022-12-03T23:05:02.374Z,1.11
2022-12-03T23:07:04.130Z,1.12
2022-12-03T23:09:05.441Z,1.13
2022-12-03T23:11:06.774Z,1.12
2022-12-03T23:13:08.632Z,1.16
2022-12-03T23:15:09.854Z,1.15
2022-12-03T23:17:11.808Z,1.12
2022-12-03T23:19:13.211Z,1.16
2022-12-03T23:21:15.106Z,1.15
2022-12-03T23:23:16.763Z,1.19
2022-12-03T23:25:17.868Z,1.23
2022-12-03T23:27:19.910Z,1.23
2022-12-03T23:29:21.461Z,1.26
2022-12-03T23:31:23.004Z,1.24
2022-12-03T23:33:24.433Z,1.26
2022-12-03T23:35:25.628Z,1.25
2022-12-03T23:37:27.528Z,1.25
2022-12-03T23:39:29.407Z,1.24
2022-12-03T23:41:31.221Z,1.25
2022-12-03T23:43:32.665Z,1.27
2022-12-03T23:45:34.091Z,1.29
2022-12-03T23:47:35.176Z,1.35
2022-12-03T23:49:37.101Z,1.28
2022-12-03T23:51:39.037Z,1.29
2022-12-03T23:53:40.129Z,1.3
2022-12-03T23:55:41.248Z,1.29
2022-12-03T23:57:42.326Z,1.31
2022-12-03T23:59:44.327Z,1.31
